sensor_id;sensor_type;location;lat;lon;timestamp;P1;durP1;ratioP1;P2;durP2;ratioP2
58360;SDS011;44164;44.954;10.068;2023-05-10T00:02:15;3.22;;;2.70;;
58360;SDS011;44164;44.954;10.068;2023-05-10T00:04:41;3.17;;;2.80;;
58360;SDS011;44164;44.954;10.068;2023-05-10T00:07:07;3.72;;;2.80;;
58360;SDS011;44164;44.954;10.068;2023-05-10T00:09:33;3.83;;;2.97;;
58360;SDS011;44164;44.954;10.068;2023-05-10T00:11:59;3.30;;;3.00;;
58360;SDS011;44164;44.954;10.068;2023-05-10T00:14:25;4.15;;;2.95;;
58360;SDS011;44164;44.954;10.068;2023-05-10T00:16:52;3.85;;;3.00;;
58360;SDS011;44164;44.954;10.068;2023-05-10T00:19:18;3.40;;;2.67;;
58360;SDS011;44164;44.954;10.068;2023-05-10T00:21:44;3.70;;;2.67;;
58360;SDS011;44164;44.954;10.068;2023-05-10T00:24:10;3.30;;;2.78;;
58360;SDS011;44164;44.954;10.068;2023-05-10T00:26:36;3.17;;;2.80;;
58360;SDS011;44164;44.954;10.068;2023-05-10T00:29:02;3.30;;;2.95;;
58360;SDS011;44164;44.954;10.068;2023-05-10T00:31:28;3.17;;;2.85;;
58360;SDS011;44164;44.954;10.068;2023-05-10T00:33:56;3.45;;;2.85;;
58360;SDS011;44164;44.954;10.068;2023-05-10T00:36:23;3.20;;;2.60;;
58360;SDS011;44164;44.954;10.068;2023-05-10T00:38:49;3.50;;;2.90;;
58360;SDS011;44164;44.954;10.068;2023-05-10T00:41:15;3.53;;;2.67;;
58360;SDS011;44164;44.954;10.068;2023-05-10T00:43:42;4.90;;;3.00;;
58360;SDS011;44164;44.954;10.068;2023-05-10T00:46:08;3.72;;;3.08;;
58360;SDS011;44164;44.954;10.068;2023-05-10T00:48:34;4.10;;;3.20;;
58360;SDS011;44164;44.954;10.068;2023-05-10T00:51:00;3.45;;;2.63;;
58360;SDS011;44164;44.954;10.068;2023-05-10T00:53:27;2.90;;;2.60;;
58360;SDS011;44164;44.954;10.068;2023-05-10T00:55:53;4.32;;;2.90;;
58360;SDS011;44164;44.954;10.068;2023-05-10T00:58:19;3.97;;;2.70;;
58360;SDS011;44164;44.954;10.068;2023-05-10T01:00:45;3.85;;;2.92;;
58360;SDS011;44164;44.954;10.068;2023-05-10T01:03:12;3.10;;;2.60;;
58360;SDS011;44164;44.954;10.068;2023-05-10T01:05:38;2.88;;;2.45;;
58360;SDS011;44164;44.954;10.068;2023-05-10T01:08:04;3.33;;;2.80;;
58360;SDS011;44164;44.954;10.068;2023-05-10T01:10:30;3.78;;;3.08;;
58360;SDS011;44164;44.954;10.068;2023-05-10T01:12:57;3.17;;;2.72;;
58360;SDS011;44164;44.954;10.068;2023-05-10T01:15:24;3.35;;;2.90;;
58360;SDS011;44164;44.954;10.068;2023-05-10T01:17:51;4.00;;;2.75;;
58360;SDS011;44164;44.954;10.068;2023-05-10T01:20:17;3.30;;;2.72;;
58360;SDS011;44164;44.954;10.068;2023-05-10T01:22:55;3.17;;;2.88;;
58360;SDS011;44164;44.954;10.068;2023-05-10T01:28:14;3.35;;;2.67;;
58360;SDS011;44164;44.954;10.068;2023-05-10T01:30:54;4.90;;;2.92;;
58360;SDS011;44164;44.954;10.068;2023-05-10T01:38:58;3.70;;;2.83;;
58360;SDS011;44164;44.954;10.068;2023-05-10T01:41:49;3.15;;;2.63;;
58360;SDS011;44164;44.954;10.068;2023-05-10T01:47:05;3.33;;;2.80;;
58360;SDS011;44164;44.954;10.068;2023-05-10T01:49:47;3.72;;;3.00;;
58360;SDS011;44164;44.954;10.068;2023-05-10T01:52:16;3.88;;;2.90;;
58360;SDS011;44164;44.954;10.068;2023-05-10T01:55:00;2.65;;;2.45;;
58360;SDS011;44164;44.954;10.068;2023-05-10T01:57:31;3.75;;;3.08;;
58360;SDS011;44164;44.954;10.068;2023-05-10T01:59:58;4.53;;;2.70;;
58360;SDS011;44164;44.954;10.068;2023-05-10T02:02:27;2.95;;;2.65;;
58360;SDS011;44164;44.954;10.068;2023-05-10T02:04:54;3.53;;;3.10;;
58360;SDS011;44164;44.954;10.068;2023-05-10T02:07:21;3.65;;;3.00;;
58360;SDS011;44164;44.954;10.068;2023-05-10T02:09:47;3.08;;;2.78;;
58360;SDS011;44164;44.954;10.068;2023-05-10T02:12:14;3.33;;;2.55;;
58360;SDS011;44164;44.954;10.068;2023-05-10T02:14:41;5.50;;;3.03;;
58360;SDS011;44164;44.954;10.068;2023-05-10T02:17:08;4.07;;;3.22;;
58360;SDS011;44164;44.954;10.068;2023-05-10T02:19:36;3.10;;;2.53;;
58360;SDS011;44164;44.954;10.068;2023-05-10T02:22:04;3.70;;;2.90;;
58360;SDS011;44164;44.954;10.068;2023-05-10T02:24:31;3.00;;;2.67;;
58360;SDS011;44164;44.954;10.068;2023-05-10T02:27:00;2.90;;;2.50;;
58360;SDS011;44164;44.954;10.068;2023-05-10T02:29:28;3.15;;;2.30;;
58360;SDS011;44164;44.954;10.068;2023-05-10T02:31:55;3.03;;;2.60;;
58360;SDS011;44164;44.954;10.068;2023-05-10T02:34:23;2.60;;;2.38;;
58360;SDS011;44164;44.954;10.068;2023-05-10T02:39:18;3.63;;;2.70;;
58360;SDS011;44164;44.954;10.068;2023-05-10T02:41:45;3.40;;;2.90;;
58360;SDS011;44164;44.954;10.068;2023-05-10T02:44:14;3.75;;;2.75;;
58360;SDS011;44164;44.954;10.068;2023-05-10T02:46:41;2.85;;;2.30;;
58360;SDS011;44164;44.954;10.068;2023-05-10T02:49:07;3.15;;;2.70;;
58360;SDS011;44164;44.954;10.068;2023-05-10T02:51:34;3.88;;;2.40;;
58360;SDS011;44164;44.954;10.068;2023-05-10T02:54:04;2.95;;;2.65;;
58360;SDS011;44164;44.954;10.068;2023-05-10T02:56:34;3.47;;;3.03;;
58360;SDS011;44164;44.954;10.068;2023-05-10T03:01:27;3.35;;;2.85;;
58360;SDS011;44164;44.954;10.068;2023-05-10T03:03:55;4.05;;;3.28;;
58360;SDS011;44164;44.954;10.068;2023-05-10T03:06:21;3.75;;;2.92;;
58360;SDS011;44164;44.954;10.068;2023-05-10T03:08:47;3.28;;;2.67;;
58360;SDS011;44164;44.954;10.068;2023-05-10T03:11:21;3.33;;;2.85;;
58360;SDS011;44164;44.954;10.068;2023-05-10T03:17:11;3.33;;;2.47;;
58360;SDS011;44164;44.954;10.068;2023-05-10T03:20:01;3.08;;;2.35;;
58360;SDS011;44164;44.954;10.068;2023-05-10T03:22:51;3.25;;;2.65;;
58360;SDS011;44164;44.954;10.068;2023-05-10T03:25:17;3.30;;;3.00;;
58360;SDS011;44164;44.954;10.068;2023-05-10T03:27:46;2.80;;;2.40;;
58360;SDS011;44164;44.954;10.068;2023-05-10T03:30:12;3.72;;;2.70;;
58360;SDS011;44164;44.954;10.068;2023-05-10T03:32:39;3.83;;;2.78;;
58360;SDS011;44164;44.954;10.068;2023-05-10T03:35:08;2.42;;;2.15;;
58360;SDS011;44164;44.954;10.068;2023-05-10T03:37:35;3.20;;;2.55;;
58360;SDS011;44164;44.954;10.068;2023-05-10T03:40:02;3.42;;;3.05;;
58360;SDS011;44164;44.954;10.068;2023-05-10T03:42:31;3.53;;;3.00;;
58360;SDS011;44164;44.954;10.068;2023-05-10T03:44:57;3.17;;;2.67;;
58360;SDS011;44164;44.954;10.068;2023-05-10T03:47:24;2.67;;;2.22;;
58360;SDS011;44164;44.954;10.068;2023-05-10T03:49:50;2.90;;;2.58;;
58360;SDS011;44164;44.954;10.068;2023-05-10T03:52:17;3.13;;;2.58;;
58360;SDS011;44164;44.954;10.068;2023-05-10T03:54:44;3.60;;;2.73;;
58360;SDS011;44164;44.954;10.068;2023-05-10T03:57:10;3.83;;;2.55;;
58360;SDS011;44164;44.954;10.068;2023-05-10T03:59:36;3.00;;;2.50;;
58360;SDS011;44164;44.954;10.068;2023-05-10T04:02:02;2.83;;;2.33;;
58360;SDS011;44164;44.954;10.068;2023-05-10T04:04:29;4.13;;;2.85;;
58360;SDS011;44164;44.954;10.068;2023-05-10T04:06:55;3.38;;;2.70;;
58360;SDS011;44164;44.954;10.068;2023-05-10T04:09:22;3.15;;;2.78;;
58360;SDS011;44164;44.954;10.068;2023-05-10T04:11:48;2.50;;;1.98;;
58360;SDS011;44164;44.954;10.068;2023-05-10T04:14:14;3.17;;;2.67;;
58360;SDS011;44164;44.954;10.068;2023-05-10T04:16:40;2.88;;;2.50;;
58360;SDS011;44164;44.954;10.068;2023-05-10T04:19:06;2.90;;;2.30;;
58360;SDS011;44164;44.954;10.068;2023-05-10T04:21:32;3.80;;;2.85;;
58360;SDS011;44164;44.954;10.068;2023-05-10T04:23:58;3.15;;;2.45;;
58360;SDS011;44164;44.954;10.068;2023-05-10T04:26:24;3.13;;;2.40;;
58360;SDS011;44164;44.954;10.068;2023-05-10T04:28:51;7.03;;;2.97;;
58360;SDS011;44164;44.954;10.068;2023-05-10T04:31:17;3.22;;;2.33;;
58360;SDS011;44164;44.954;10.068;2023-05-10T04:33:43;2.72;;;2.38;;
58360;SDS011;44164;44.954;10.068;2023-05-10T04:36:09;2.88;;;2.30;;
58360;SDS011;44164;44.954;10.068;2023-05-10T04:38:35;2.38;;;1.92;;
58360;SDS011;44164;44.954;10.068;2023-05-10T04:41:08;3.40;;;2.35;;
58360;SDS011;44164;44.954;10.068;2023-05-10T04:43:35;2.80;;;2.38;;
58360;SDS011;44164;44.954;10.068;2023-05-10T04:46:02;4.80;;;2.53;;
58360;SDS011;44164;44.954;10.068;2023-05-10T04:48:28;3.30;;;2.85;;
58360;SDS011;44164;44.954;10.068;2023-05-10T04:50:54;3.92;;;2.58;;
58360;SDS011;44164;44.954;10.068;2023-05-10T04:53:21;2.75;;;2.17;;
58360;SDS011;44164;44.954;10.068;2023-05-10T04:55:47;3.00;;;2.38;;
58360;SDS011;44164;44.954;10.068;2023-05-10T04:58:13;2.92;;;2.20;;
58360;SDS011;44164;44.954;10.068;2023-05-10T05:00:39;3.75;;;2.58;;
58360;SDS011;44164;44.954;10.068;2023-05-10T05:03:05;3.35;;;2.60;;
58360;SDS011;44164;44.954;10.068;2023-05-10T05:05:31;2.50;;;2.08;;
58360;SDS011;44164;44.954;10.068;2023-05-10T05:07:58;4.65;;;3.05;;
58360;SDS011;44164;44.954;10.068;2023-05-10T05:10:24;3.95;;;3.45;;
58360;SDS011;44164;44.954;10.068;2023-05-10T05:12:50;5.35;;;3.40;;
58360;SDS011;44164;44.954;10.068;2023-05-10T05:15:16;4.47;;;3.22;;
58360;SDS011;44164;44.954;10.068;2023-05-10T05:17:42;4.38;;;3.10;;
58360;SDS011;44164;44.954;10.068;2023-05-10T05:20:09;6.18;;;3.03;;
58360;SDS011;44164;44.954;10.068;2023-05-10T05:22:36;5.60;;;3.55;;
58360;SDS011;44164;44.954;10.068;2023-05-10T05:25:02;4.97;;;3.60;;
58360;SDS011;44164;44.954;10.068;2023-05-10T05:27:29;4.40;;;2.90;;
58360;SDS011;44164;44.954;10.068;2023-05-10T05:29:56;6.95;;;3.72;;
58360;SDS011;44164;44.954;10.068;2023-05-10T05:32:22;3.80;;;2.60;;
58360;SDS011;44164;44.954;10.068;2023-05-10T05:34:49;5.47;;;2.65;;
58360;SDS011;44164;44.954;10.068;2023-05-10T05:37:15;4.53;;;3.00;;
58360;SDS011;44164;44.954;10.068;2023-05-10T05:39:42;5.00;;;3.45;;
58360;SDS011;44164;44.954;10.068;2023-05-10T05:42:09;4.82;;;2.50;;
58360;SDS011;44164;44.954;10.068;2023-05-10T05:44:36;5.70;;;2.90;;
58360;SDS011;44164;44.954;10.068;2023-05-10T05:47:02;3.20;;;2.20;;
58360;SDS011;44164;44.954;10.068;2023-05-10T05:49:28;4.28;;;2.40;;
58360;SDS011;44164;44.954;10.068;2023-05-10T05:51:58;3.40;;;2.35;;
58360;SDS011;44164;44.954;10.068;2023-05-10T05:54:25;5.18;;;2.25;;
58360;SDS011;44164;44.954;10.068;2023-05-10T05:56:53;5.72;;;2.70;;
58360;SDS011;44164;44.954;10.068;2023-05-10T05:59:21;5.03;;;2.47;;
58360;SDS011;44164;44.954;10.068;2023-05-10T06:01:47;4.93;;;3.45;;
58360;SDS011;44164;44.954;10.068;2023-05-10T06:04:13;5.70;;;2.63;;
58360;SDS011;44164;44.954;10.068;2023-05-10T06:06:39;4.97;;;1.92;;
58360;SDS011;44164;44.954;10.068;2023-05-10T06:09:05;3.45;;;2.00;;
58360;SDS011;44164;44.954;10.068;2023-05-10T06:11:31;4.28;;;2.28;;
58360;SDS011;44164;44.954;10.068;2023-05-10T06:13:58;7.15;;;2.45;;
58360;SDS011;44164;44.954;10.068;2023-05-10T06:16:24;5.75;;;2.33;;
58360;SDS011;44164;44.954;10.068;2023-05-10T06:18:51;5.18;;;2.30;;
58360;SDS011;44164;44.954;10.068;2023-05-10T06:21:17;3.30;;;1.98;;
58360;SDS011;44164;44.954;10.068;2023-05-10T06:23:43;3.10;;;2.33;;
58360;SDS011;44164;44.954;10.068;2023-05-10T06:26:09;2.40;;;2.08;;
58360;SDS011;44164;44.954;10.068;2023-05-10T06:28:35;4.25;;;2.10;;
58360;SDS011;44164;44.954;10.068;2023-05-10T06:33:30;3.17;;;2.08;;
58360;SDS011;44164;44.954;10.068;2023-05-10T06:35:56;3.08;;;1.98;;
58360;SDS011;44164;44.954;10.068;2023-05-10T06:38:22;3.72;;;1.98;;
58360;SDS011;44164;44.954;10.068;2023-05-10T06:40:49;5.07;;;2.10;;
58360;SDS011;44164;44.954;10.068;2023-05-10T06:43:15;3.75;;;2.08;;
58360;SDS011;44164;44.954;10.068;2023-05-10T06:45:41;4.05;;;2.03;;
58360;SDS011;44164;44.954;10.068;2023-05-10T06:48:07;3.92;;;1.85;;
58360;SDS011;44164;44.954;10.068;2023-05-10T06:50:33;3.10;;;2.15;;
58360;SDS011;44164;44.954;10.068;2023-05-10T06:53:00;3.15;;;2.15;;
58360;SDS011;44164;44.954;10.068;2023-05-10T06:55:27;3.83;;;2.13;;
58360;SDS011;44164;44.954;10.068;2023-05-10T06:57:53;4.22;;;2.40;;
58360;SDS011;44164;44.954;10.068;2023-05-10T07:00:20;4.60;;;2.33;;
58360;SDS011;44164;44.954;10.068;2023-05-10T07:02:46;2.60;;;1.88;;
58360;SDS011;44164;44.954;10.068;2023-05-10T07:05:12;3.42;;;2.03;;
58360;SDS011;44164;44.954;10.068;2023-05-10T07:07:39;2.60;;;1.90;;
58360;SDS011;44164;44.954;10.068;2023-05-10T07:10:05;2.88;;;1.92;;
58360;SDS011;44164;44.954;10.068;2023-05-10T07:12:32;4.22;;;2.17;;
58360;SDS011;44164;44.954;10.068;2023-05-10T07:14:59;3.33;;;2.20;;
58360;SDS011;44164;44.954;10.068;2023-05-10T07:17:25;3.40;;;1.98;;
58360;SDS011;44164;44.954;10.068;2023-05-10T07:19:51;3.70;;;2.25;;
58360;SDS011;44164;44.954;10.068;2023-05-10T07:22:17;3.72;;;2.45;;
58360;SDS011;44164;44.954;10.068;2023-05-10T07:24:43;3.35;;;2.28;;
58360;SDS011;44164;44.954;10.068;2023-05-10T07:27:09;3.03;;;1.80;;
58360;SDS011;44164;44.954;10.068;2023-05-10T07:29:35;3.22;;;2.05;;
58360;SDS011;44164;44.954;10.068;2023-05-10T07:32:02;6.00;;;1.75;;
58360;SDS011;44164;44.954;10.068;2023-05-10T07:34:28;3.58;;;1.92;;
58360;SDS011;44164;44.954;10.068;2023-05-10T07:36:57;3.67;;;2.10;;
58360;SDS011;44164;44.954;10.068;2023-05-10T07:39:24;2.80;;;1.92;;
58360;SDS011;44164;44.954;10.068;2023-05-10T07:41:51;3.22;;;2.20;;
58360;SDS011;44164;44.954;10.068;2023-05-10T07:44:17;3.08;;;1.75;;
58360;SDS011;44164;44.954;10.068;2023-05-10T07:46:46;2.30;;;1.77;;
58360;SDS011;44164;44.954;10.068;2023-05-10T07:49:13;3.17;;;1.75;;
58360;SDS011;44164;44.954;10.068;2023-05-10T07:51:39;2.30;;;1.73;;
58360;SDS011;44164;44.954;10.068;2023-05-10T07:54:05;3.45;;;1.92;;
58360;SDS011;44164;44.954;10.068;2023-05-10T07:56:31;2.80;;;2.00;;
58360;SDS011;44164;44.954;10.068;2023-05-10T07:58:58;2.08;;;1.42;;
58360;SDS011;44164;44.954;10.068;2023-05-10T08:01:25;2.97;;;1.90;;
58360;SDS011;44164;44.954;10.068;2023-05-10T08:03:51;3.42;;;2.10;;
58360;SDS011;44164;44.954;10.068;2023-05-10T08:06:19;3.83;;;1.95;;
58360;SDS011;44164;44.954;10.068;2023-05-10T08:08:46;2.83;;;1.98;;
58360;SDS011;44164;44.954;10.068;2023-05-10T08:11:15;2.47;;;1.85;;
58360;SDS011;44164;44.954;10.068;2023-05-10T08:13:42;3.67;;;2.13;;
58360;SDS011;44164;44.954;10.068;2023-05-10T08:16:09;5.28;;;1.80;;
58360;SDS011;44164;44.954;10.068;2023-05-10T08:18:35;3.95;;;1.92;;
58360;SDS011;44164;44.954;10.068;2023-05-10T08:21:01;3.55;;;1.98;;
58360;SDS011;44164;44.954;10.068;2023-05-10T08:23:27;3.53;;;1.88;;
58360;SDS011;44164;44.954;10.068;2023-05-10T08:25:53;2.90;;;1.85;;
58360;SDS011;44164;44.954;10.068;2023-05-10T08:28:19;3.10;;;1.77;;
58360;SDS011;44164;44.954;10.068;2023-05-10T08:30:45;2.92;;;1.50;;
58360;SDS011;44164;44.954;10.068;2023-05-10T08:33:11;2.38;;;1.63;;
58360;SDS011;44164;44.954;10.068;2023-05-10T08:35:37;2.58;;;1.60;;
58360;SDS011;44164;44.954;10.068;2023-05-10T08:38:03;2.72;;;2.13;;
58360;SDS011;44164;44.954;10.068;2023-05-10T08:40:30;2.67;;;1.65;;
58360;SDS011;44164;44.954;10.068;2023-05-10T08:43:03;2.10;;;1.58;;
58360;SDS011;44164;44.954;10.068;2023-05-10T08:45:33;2.80;;;1.63;;
58360;SDS011;44164;44.954;10.068;2023-05-10T08:48:01;2.92;;;2.13;;
58360;SDS011;44164;44.954;10.068;2023-05-10T08:50:28;3.13;;;1.80;;
58360;SDS011;44164;44.954;10.068;2023-05-10T08:52:55;3.90;;;1.60;;
58360;SDS011;44164;44.954;10.068;2023-05-10T08:55:23;2.63;;;1.90;;
58360;SDS011;44164;44.954;10.068;2023-05-10T08:57:50;2.40;;;2.00;;
58360;SDS011;44164;44.954;10.068;2023-05-10T09:00:16;3.20;;;1.75;;
58360;SDS011;44164;44.954;10.068;2023-05-10T09:02:44;2.80;;;1.60;;
58360;SDS011;44164;44.954;10.068;2023-05-10T09:05:12;2.28;;;1.65;;
58360;SDS011;44164;44.954;10.068;2023-05-10T09:07:38;2.78;;;1.60;;
58360;SDS011;44164;44.954;10.068;2023-05-10T09:10:04;2.47;;;1.63;;
58360;SDS011;44164;44.954;10.068;2023-05-10T09:12:31;2.72;;;1.67;;
58360;SDS011;44164;44.954;10.068;2023-05-10T09:14:57;3.40;;;1.70;;
58360;SDS011;44164;44.954;10.068;2023-05-10T09:19:57;2.33;;;1.65;;
58360;SDS011;44164;44.954;10.068;2023-05-10T09:22:26;2.00;;;1.38;;
58360;SDS011;44164;44.954;10.068;2023-05-10T09:27:32;2.85;;;1.92;;
58360;SDS011;44164;44.954;10.068;2023-05-10T09:29:59;2.63;;;1.70;;
58360;SDS011;44164;44.954;10.068;2023-05-10T09:32:42;3.17;;;1.73;;
58360;SDS011;44164;44.954;10.068;2023-05-10T09:37:40;2.77;;;1.80;;
58360;SDS011;44164;44.954;10.068;2023-05-10T09:40:07;2.28;;;1.70;;
58360;SDS011;44164;44.954;10.068;2023-05-10T09:42:36;2.45;;;1.73;;
58360;SDS011;44164;44.954;10.068;2023-05-10T09:45:06;2.83;;;1.50;;
58360;SDS011;44164;44.954;10.068;2023-05-10T09:47:33;2.55;;;1.70;;
58360;SDS011;44164;44.954;10.068;2023-05-10T09:50:00;2.28;;;1.30;;
58360;SDS011;44164;44.954;10.068;2023-05-10T09:55:46;3.47;;;1.65;;
58360;SDS011;44164;44.954;10.068;2023-05-10T09:58:12;2.08;;;1.20;;
58360;SDS011;44164;44.954;10.068;2023-05-10T10:00:40;2.67;;;1.65;;
58360;SDS011;44164;44.954;10.068;2023-05-10T10:03:18;4.15;;;1.50;;
58360;SDS011;44164;44.954;10.068;2023-05-10T10:05:45;2.15;;;1.58;;
58360;SDS011;44164;44.954;10.068;2023-05-10T10:08:12;2.67;;;1.50;;
58360;SDS011;44164;44.954;10.068;2023-05-10T10:10:39;2.97;;;1.73;;
58360;SDS011;44164;44.954;10.068;2023-05-10T10:13:06;1.92;;;1.30;;
58360;SDS011;44164;44.954;10.068;2023-05-10T10:15:33;2.88;;;1.60;;
58360;SDS011;44164;44.954;10.068;2023-05-10T10:18:00;2.92;;;1.73;;
58360;SDS011;44164;44.954;10.068;2023-05-10T10:20:28;4.20;;;1.98;;
58360;SDS011;44164;44.954;10.068;2023-05-10T10:22:54;3.53;;;1.67;;
58360;SDS011;44164;44.954;10.068;2023-05-10T10:25:21;2.08;;;1.30;;
58360;SDS011;44164;44.954;10.068;2023-05-10T10:35:29;2.42;;;1.60;;
58360;SDS011;44164;44.954;10.068;2023-05-10T10:37:55;3.17;;;1.80;;
58360;SDS011;44164;44.954;10.068;2023-05-10T10:40:26;2.45;;;1.30;;
58360;SDS011;44164;44.954;10.068;2023-05-10T10:43:20;5.57;;;1.52;;
58360;SDS011;44164;44.954;10.068;2023-05-10T10:46:13;1.85;;;1.30;;
58360;SDS011;44164;44.954;10.068;2023-05-10T10:48:41;2.10;;;1.30;;
58360;SDS011;44164;44.954;10.068;2023-05-10T10:51:09;2.80;;;1.45;;
58360;SDS011;44164;44.954;10.068;2023-05-10T10:53:36;2.65;;;1.60;;
58360;SDS011;44164;44.954;10.068;2023-05-10T10:56:06;3.20;;;1.60;;
58360;SDS011;44164;44.954;10.068;2023-05-10T10:58:37;3.05;;;1.52;;
58360;SDS011;44164;44.954;10.068;2023-05-10T11:01:10;2.00;;;1.50;;
58360;SDS011;44164;44.954;10.068;2023-05-10T11:03:36;2.00;;;1.38;;
58360;SDS011;44164;44.954;10.068;2023-05-10T11:06:03;2.90;;;1.65;;
58360;SDS011;44164;44.954;10.068;2023-05-10T11:08:30;2.45;;;1.48;;
58360;SDS011;44164;44.954;10.068;2023-05-10T11:13:27;2.85;;;1.55;;
58360;SDS011;44164;44.954;10.068;2023-05-10T11:15:57;3.08;;;1.60;;
58360;SDS011;44164;44.954;10.068;2023-05-10T11:20:51;2.22;;;1.48;;
58360;SDS011;44164;44.954;10.068;2023-05-10T11:23:21;2.10;;;1.38;;
58360;SDS011;44164;44.954;10.068;2023-05-10T11:25:48;2.40;;;1.60;;
58360;SDS011;44164;44.954;10.068;2023-05-10T11:28:16;3.28;;;1.50;;
58360;SDS011;44164;44.954;10.068;2023-05-10T11:30:43;3.15;;;1.45;;
58360;SDS011;44164;44.954;10.068;2023-05-10T11:33:14;2.97;;;1.58;;
58360;SDS011;44164;44.954;10.068;2023-05-10T11:35:41;2.03;;;1.40;;
58360;SDS011;44164;44.954;10.068;2023-05-10T11:38:08;2.97;;;1.40;;
58360;SDS011;44164;44.954;10.068;2023-05-10T11:40:35;3.08;;;1.92;;
58360;SDS011;44164;44.954;10.068;2023-05-10T11:43:02;2.97;;;1.50;;
58360;SDS011;44164;44.954;10.068;2023-05-10T11:45:29;2.40;;;1.45;;
58360;SDS011;44164;44.954;10.068;2023-05-10T11:47:59;2.75;;;1.60;;
58360;SDS011;44164;44.954;10.068;2023-05-10T11:50:26;3.05;;;1.60;;
58360;SDS011;44164;44.954;10.068;2023-05-10T11:52:53;2.42;;;1.55;;
58360;SDS011;44164;44.954;10.068;2023-05-10T11:55:22;3.47;;;1.30;;
58360;SDS011;44164;44.954;10.068;2023-05-10T11:57:53;3.47;;;1.58;;
58360;SDS011;44164;44.954;10.068;2023-05-10T12:00:20;3.47;;;1.60;;
58360;SDS011;44164;44.954;10.068;2023-05-10T12:02:47;4.00;;;1.50;;
58360;SDS011;44164;44.954;10.068;2023-05-10T12:05:13;2.55;;;1.70;;
58360;SDS011;44164;44.954;10.068;2023-05-10T12:07:39;3.83;;;1.50;;
58360;SDS011;44164;44.954;10.068;2023-05-10T12:10:06;3.42;;;1.58;;
58360;SDS011;44164;44.954;10.068;2023-05-10T12:15:23;4.53;;;1.30;;
58360;SDS011;44164;44.954;10.068;2023-05-10T12:17:50;4.70;;;1.55;;
58360;SDS011;44164;44.954;10.068;2023-05-10T12:20:17;2.28;;;1.45;;
58360;SDS011;44164;44.954;10.068;2023-05-10T12:22:44;6.95;;;2.45;;
58360;SDS011;44164;44.954;10.068;2023-05-10T12:25:11;3.85;;;1.80;;
58360;SDS011;44164;44.954;10.068;2023-05-10T12:27:37;2.97;;;1.35;;
58360;SDS011;44164;44.954;10.068;2023-05-10T12:30:04;3.00;;;2.00;;
58360;SDS011;44164;44.954;10.068;2023-05-10T12:32:43;4.03;;;1.85;;
58360;SDS011;44164;44.954;10.068;2023-05-10T12:35:09;2.88;;;1.95;;
58360;SDS011;44164;44.954;10.068;2023-05-10T12:37:35;5.40;;;1.92;;
58360;SDS011;44164;44.954;10.068;2023-05-10T12:40:08;3.65;;;1.88;;
58360;SDS011;44164;44.954;10.068;2023-05-10T12:42:36;5.07;;;2.10;;
58360;SDS011;44164;44.954;10.068;2023-05-10T12:45:03;3.53;;;1.85;;
58360;SDS011;44164;44.954;10.068;2023-05-10T12:47:30;4.80;;;2.35;;
58360;SDS011;44164;44.954;10.068;2023-05-10T12:49:56;2.75;;;1.70;;
58360;SDS011;44164;44.954;10.068;2023-05-10T12:52:22;3.80;;;1.60;;
58360;SDS011;44164;44.954;10.068;2023-05-10T12:54:49;3.78;;;1.83;;
58360;SDS011;44164;44.954;10.068;2023-05-10T12:57:15;3.38;;;1.73;;
58360;SDS011;44164;44.954;10.068;2023-05-10T12:59:41;3.85;;;1.70;;
58360;SDS011;44164;44.954;10.068;2023-05-10T13:02:07;4.45;;;1.88;;
58360;SDS011;44164;44.954;10.068;2023-05-10T13:04:34;5.03;;;1.63;;
58360;SDS011;44164;44.954;10.068;2023-05-10T13:07:00;3.42;;;1.75;;
58360;SDS011;44164;44.954;10.068;2023-05-10T13:09:26;2.50;;;1.50;;
58360;SDS011;44164;44.954;10.068;2023-05-10T13:11:54;3.28;;;1.60;;
58360;SDS011;44164;44.954;10.068;2023-05-10T13:14:21;3.15;;;1.52;;
58360;SDS011;44164;44.954;10.068;2023-05-10T13:16:47;2.85;;;1.70;;
58360;SDS011;44164;44.954;10.068;2023-05-10T13:19:13;3.00;;;1.70;;
58360;SDS011;44164;44.954;10.068;2023-05-10T13:21:40;3.50;;;1.83;;
58360;SDS011;44164;44.954;10.068;2023-05-10T13:24:10;3.22;;;1.98;;
58360;SDS011;44164;44.954;10.068;2023-05-10T13:26:42;2.63;;;1.50;;
58360;SDS011;44164;44.954;10.068;2023-05-10T13:29:08;2.15;;;1.63;;
58360;SDS011;44164;44.954;10.068;2023-05-10T13:31:35;2.30;;;1.30;;
58360;SDS011;44164;44.954;10.068;2023-05-10T13:34:01;2.03;;;1.45;;
58360;SDS011;44164;44.954;10.068;2023-05-10T13:36:28;2.30;;;1.73;;
58360;SDS011;44164;44.954;10.068;2023-05-10T13:38:54;3.50;;;1.33;;
58360;SDS011;44164;44.954;10.068;2023-05-10T13:41:20;2.30;;;1.60;;
58360;SDS011;44164;44.954;10.068;2023-05-10T13:43:46;2.45;;;1.48;;
58360;SDS011;44164;44.954;10.068;2023-05-10T13:46:14;2.85;;;1.80;;
58360;SDS011;44164;44.954;10.068;2023-05-10T13:48:40;2.65;;;1.58;;
58360;SDS011;44164;44.954;10.068;2023-05-10T13:51:06;5.28;;;1.80;;
58360;SDS011;44164;44.954;10.068;2023-05-10T13:53:32;7.22;;;2.00;;
58360;SDS011;44164;44.954;10.068;2023-05-10T13:55:59;2.42;;;1.58;;
58360;SDS011;44164;44.954;10.068;2023-05-10T13:58:25;2.50;;;1.52;;
58360;SDS011;44164;44.954;10.068;2023-05-10T14:00:51;2.97;;;1.65;;
58360;SDS011;44164;44.954;10.068;2023-05-10T14:03:17;2.58;;;1.60;;
58360;SDS011;44164;44.954;10.068;2023-05-10T14:05:43;3.33;;;1.95;;
58360;SDS011;44164;44.954;10.068;2023-05-10T14:08:10;3.45;;;2.15;;
58360;SDS011;44164;44.954;10.068;2023-05-10T14:10:38;4.38;;;1.88;;
58360;SDS011;44164;44.954;10.068;2023-05-10T14:13:05;1.85;;;1.42;;
58360;SDS011;44164;44.954;10.068;2023-05-10T14:15:31;3.13;;;1.98;;
58360;SDS011;44164;44.954;10.068;2023-05-10T14:17:58;3.17;;;1.90;;
58360;SDS011;44164;44.954;10.068;2023-05-10T14:20:24;2.72;;;1.52;;
58360;SDS011;44164;44.954;10.068;2023-05-10T14:22:50;2.13;;;1.58;;
58360;SDS011;44164;44.954;10.068;2023-05-10T14:25:16;1.95;;;1.40;;
58360;SDS011;44164;44.954;10.068;2023-05-10T14:27:42;2.33;;;1.60;;
58360;SDS011;44164;44.954;10.068;2023-05-10T14:30:08;3.72;;;1.77;;
58360;SDS011;44164;44.954;10.068;2023-05-10T14:32:35;2.42;;;1.90;;
58360;SDS011;44164;44.954;10.068;2023-05-10T14:35:02;2.28;;;1.42;;
58360;SDS011;44164;44.954;10.068;2023-05-10T14:37:28;3.10;;;1.80;;
58360;SDS011;44164;44.954;10.068;2023-05-10T14:39:55;1.95;;;1.23;;
58360;SDS011;44164;44.954;10.068;2023-05-10T14:42:21;3.42;;;1.40;;
58360;SDS011;44164;44.954;10.068;2023-05-10T14:44:47;2.53;;;1.70;;
58360;SDS011;44164;44.954;10.068;2023-05-10T14:47:13;2.50;;;1.75;;
58360;SDS011;44164;44.954;10.068;2023-05-10T14:49:40;2.35;;;1.73;;
58360;SDS011;44164;44.954;10.068;2023-05-10T14:52:06;2.55;;;1.70;;
58360;SDS011;44164;44.954;10.068;2023-05-10T14:54:33;2.45;;;1.50;;
58360;SDS011;44164;44.954;10.068;2023-05-10T14:56:59;2.58;;;1.70;;
58360;SDS011;44164;44.954;10.068;2023-05-10T14:59:26;2.00;;;1.40;;
58360;SDS011;44164;44.954;10.068;2023-05-10T15:01:52;2.55;;;1.58;;
58360;SDS011;44164;44.954;10.068;2023-05-10T15:04:18;2.22;;;1.55;;
58360;SDS011;44164;44.954;10.068;2023-05-10T15:06:44;2.30;;;1.70;;
58360;SDS011;44164;44.954;10.068;2023-05-10T15:09:10;3.30;;;1.98;;
58360;SDS011;44164;44.954;10.068;2023-05-10T15:11:36;2.97;;;1.60;;
58360;SDS011;44164;44.954;10.068;2023-05-10T15:14:02;2.40;;;1.63;;
58360;SDS011;44164;44.954;10.068;2023-05-10T15:16:28;3.05;;;1.60;;
58360;SDS011;44164;44.954;10.068;2023-05-10T15:18:54;2.53;;;1.80;;
58360;SDS011;44164;44.954;10.068;2023-05-10T15:21:21;4.60;;;2.30;;
58360;SDS011;44164;44.954;10.068;2023-05-10T15:23:47;2.78;;;1.75;;